Creston, WA

3:35 AM PDT on September 23, 2014 (GMT -0700)
Davenport, WA | Change Station
CLOSE
Current Station
Personal Weather Station
Location: Davenport, WA
Elevation: 2375 ft
Nearby Weather Stations

Elev 2375 ft 47.65 °N, 118.15 °W | Updated 6 minutes ago

Partly Cloudy
Partly Cloudy
61.2 °F
Feels Like 61.2 °F
N
1.7
Wind Variable Wind from NNW

Today
High -- | Low -- °F
--% Chance of Precip.
Yesterday
High -- | Low -- °F
Precip. -- in
6:42 AM 6:49 PM
Waning Crescent, 1% visible
Pressure 29.92 in
Visibility 10.0 miles
Clouds Overcast 12000 ft
Dew Point 52 °F
Humidity 71%
Rainfall 0.00 in
Snow Depth 0 in , 0 in , 0 in
UV 0 out of 12
Pollen 7.30 out of 12
Air Quality Not available.
Flu Activity Not available.
METAR KSKA 230958Z AUTO 10004KT 10SM OVC120 17/11 A2996 RMK AO2 SLP132 T01730111

More Conditions Fewer Conditions

Pressure 29.92 in
Visibility 10.0 miles
Clouds Overcast 12000 ft
Dew Point 52 °F
Humidity 71%
Rainfall 0.00 in
Snow Depth 0 in , 0 in , 0 in
UV 0 out of 12
Pollen 7.30 out of 12
Air Quality Not available.
Flu Activity Not available.
METAR KSKA 230958Z AUTO 10004KT 10SM OVC120 17/11 A2996 RMK AO2 SLP132 T01730111

More Conditions Fewer Conditions

10-Day Weather Forecast

Almanac

Astronomy

Sep. 23, 2014 Rise Set
Actual Time 6:42 AM PDT 6:49 PM PDT
Civil Twilight 6:11 AM PDT 7:20 PM PDT
Nautical Twilight 5:35 AM PDT 7:56 PM PDT
Astronomical Twilight 4:57 AM PDT 8:33 PM PDT
Moon 6:10 AM PDT 6:29 PM PDT
Length of Visible Light 13h 08m
Length of Day
12h 07m
Tomorrow will be 3m 26s shorter.
Waning Crescent, 1% of the Moon is Illuminated
Today
Waning Crescent
Sep 24
New
Oct 1
First Quarter
Oct 8
Full
Oct 15
Last Quarter

Today's Extremes

State Highs State Lows

Community

WunderPhotos

Upload Photos

1,755,645 photos uploaded!

Nearby

Snow Depth

Station Depth Elevation
Stampede Pass 0 in 3860 ft
Morse Lake 0 in 5400 ft
Meadows Pass 0 in 3500 ft
Burnt Mountain 0 in 4200 ft
Spencer Meadow 0 in 3400 ft

Earthquake Activity

City Distance Mag. Time & Date
No recent earthquake activity has been reported nearby.
Minimum magnitude displayed is 2.5.

Coastal Water Temperatures

Place Temperature
No Stations Reporting

Nearby Weather Stations